Grayling, AK (99590)

2:55 AM AKST on February 07, 2016 (GMT -0900)
Unalakleet | | Change Station
CLOSE
Current Station
Airport
Location: Unalakleet,
Elevation: 20 ft
Nearby Weather Stations

Elev 20 ft 63.89 °N, 160.80 °W | Updated 19 minutes ago

Overcast
Overcast
21 °F
Feels Like 7 °F
N
16
Wind Variable Wind from ENE

Today
High -- | Low -- °F
--% Chance of Precip.
Yesterday
High -- | Low -- °F
Precip. -- in
Pressure 29.86 in
Visibility 10.0 miles
Clouds Few 3900 ft
Scattered Clouds 4700 ft
Overcast 5000 ft
Windchill 7 °F
Dew Point 16 °F
Humidity 80%
Rainfall 0.00 in
Snow Depth Not available.
9:56 AM 5:52 PM
Waning Crescent, 2% visible
METAR PAUN 071136Z AUTO 06014KT 10SM FEW039 SCT047 OVC050 M06/M09 A2986 RMK AO1
Pressure 29.86 in
Visibility 10.0 miles
Clouds Few 3900 ft
Scattered Clouds 4700 ft
Overcast 5000 ft
Windchill 7 °F
Dew Point 16 °F
Humidity 80%
Rainfall 0.00 in
Snow Depth Not available.
9:56 AM 5:52 PM
Waning Crescent, 2% visible
METAR PAUN 071136Z AUTO 06014KT 10SM FEW039 SCT047 OVC050 M06/M09 A2986 RMK AO1

10-Day Weather Forecast

Almanac

Astronomy

Feb. 07, 2016 Rise Set
Actual Time
Civil Twilight
Nautical Twilight
Astronomical Twilight
Moon
Length of Visible Light
Length of Day
Tomorrow will be .
, % of the Moon is Illuminated

Today's Extremes

State Highs State Lows

Community

WunderPhotos

Upload Photos

1,891,182 photos uploaded!

WunderBlog® & News

Nearby

Air Quality

  Air Quality AQ Index Pollutant
Not available.

Snow Depth

Station Depth Elevation

Earthquake Activity

City Distance Mag. Time & Date
Minimum magnitude displayed is 2.5.

Coastal Water Temperatures

Place Temperature

Stations

Nearby Weather Stations

Station Location Temp. Windchill Dew Point Humidity Wind Precip. Elev Updated Type
                   

Watches & Warnings

There are currently no watches in effect.